createdAt,value
2023-08-21T00:00:36.188Z,1018.87
2023-08-21T00:01:36.139Z,1018.86
2023-08-21T00:02:36.479Z,1018.88
2023-08-21T00:03:36.190Z,1018.85
2023-08-21T00:04:36.119Z,1018.89
2023-08-21T00:05:36.074Z,1018.94
2023-08-21T00:06:36.090Z,1018.85
2023-08-21T00:07:36.113Z,1018.92
2023-08-21T00:08:36.053Z,1018.84
2023-08-21T00:09:36.022Z,1018.91
2023-08-21T00:10:36.024Z,1018.90
2023-08-21T00:11:35.990Z,1018.90
2023-08-21T00:12:36.413Z,1018.92
2023-08-21T00:13:36.022Z,1018.89
2023-08-21T00:14:36.072Z,1018.92
2023-08-21T00:15:35.933Z,1018.94
2023-08-21T00:16:36.074Z,1018.90
2023-08-21T00:17:35.991Z,1018.98
2023-08-21T00:18:35.950Z,1018.96
2023-08-21T00:19:35.928Z,1018.97
2023-08-21T00:20:35.909Z,1018.97
2023-08-21T00:21:35.895Z,1018.97
2023-08-21T00:22:36.122Z,1018.92
2023-08-21T00:23:35.917Z,1018.88
2023-08-21T00:24:35.884Z,1018.89
2023-08-21T00:25:35.881Z,1018.90
2023-08-21T00:26:35.890Z,1018.85
2023-08-21T00:27:35.782Z,1018.83
2023-08-21T00:28:35.860Z,1018.84
2023-08-21T00:29:35.777Z,1018.76
2023-08-21T00:30:35.768Z,1018.78
2023-08-21T00:31:35.725Z,1018.75
2023-08-21T00:32:36.020Z,1018.80
2023-08-21T00:33:35.735Z,1018.78
2023-08-21T00:34:35.697Z,1018.83
2023-08-21T00:35:35.685Z,1018.78
2023-08-21T00:36:35.674Z,1018.87
2023-08-21T00:37:35.653Z,1018.79
2023-08-21T00:38:35.656Z,1018.83
2023-08-21T00:39:35.656Z,1018.79
2023-08-21T00:40:35.647Z,1018.82
2023-08-21T00:41:35.600Z,1018.87
2023-08-21T00:42:35.882Z,1018.78
2023-08-21T00:43:35.594Z,1018.77
2023-08-21T00:44:35.579Z,1018.81
2023-08-21T00:45:35.558Z,1018.81
2023-08-21T00:46:35.606Z,1018.78
2023-08-21T00:47:35.573Z,1018.78
2023-08-21T00:48:35.637Z,1018.80
2023-08-21T00:49:35.512Z,1018.82
2023-08-21T00:50:35.539Z,1018.77
2023-08-21T00:51:35.512Z,1018.78
2023-08-21T00:52:35.568Z,1018.80
2023-08-21T00:53:35.494Z,1018.84
2023-08-21T00:54:35.466Z,1018.76
2023-08-21T00:55:35.467Z,1018.80
2023-08-21T00:56:35.404Z,1018.79
2023-08-21T00:57:35.483Z,1018.77
2023-08-21T00:58:35.395Z,1018.79
2023-08-21T00:59:35.380Z,1018.72
2023-08-21T01:00:35.386Z,1018.74
2023-08-21T01:01:35.401Z,1018.78
2023-08-21T01:02:35.525Z,1018.73
2023-08-21T01:03:35.426Z,1018.75
2023-08-21T01:04:35.350Z,1018.82
2023-08-21T01:05:35.332Z,1018.81
2023-08-21T01:06:35.324Z,1018.87
2023-08-21T01:07:35.278Z,1018.81
2023-08-21T01:08:35.279Z,1018.83
2023-08-21T01:09:35.265Z,1018.81
2023-08-21T01:10:35.258Z,1018.80
2023-08-21T01:11:35.221Z,1018.81
2023-08-21T01:12:35.249Z,1018.80
2023-08-21T01:13:35.217Z,1018.78
2023-08-21T01:14:35.201Z,1018.76
2023-08-21T01:15:35.191Z,1018.79
2023-08-21T01:16:35.206Z,1018.79
2023-08-21T01:17:35.172Z,1018.80
2023-08-21T01:18:35.167Z,1018.76
2023-08-21T01:19:35.106Z,1018.76
2023-08-21T01:20:35.088Z,1018.76
2023-08-21T01:21:35.131Z,1018.77
2023-08-21T01:22:35.111Z,1018.81
2023-08-21T01:23:35.135Z,1018.78
2023-08-21T01:24:35.070Z,1018.76
2023-08-21T01:25:35.047Z,1018.85
2023-08-21T01:26:35.049Z,1018.78
2023-08-21T01:27:35.100Z,1018.83
2023-08-21T01:28:34.990Z,1018.82
2023-08-21T01:29:35.022Z,1018.86
2023-08-21T01:30:35.041Z,1018.86
2023-08-21T01:31:35.004Z,1018.87
2023-08-21T01:32:34.989Z,1018.92
2023-08-21T01:33:34.959Z,1018.96
2023-08-21T01:34:34.946Z,1018.95
2023-08-21T01:35:34.940Z,1019.01
2023-08-21T01:36:34.966Z,1019.02
2023-08-21T01:37:34.935Z,1019.02
2023-08-21T01:38:34.931Z,1019.04
2023-08-21T01:39:34.868Z,1019.01
2023-08-21T01:40:34.881Z,1018.98
2023-08-21T01:41:34.890Z,1019.01
2023-08-21T01:42:34.862Z,1018.97
2023-08-21T01:43:34.845Z,1018.93
2023-08-21T01:44:34.844Z,1018.97
2023-08-21T01:45:34.817Z,1019.03
2023-08-21T01:46:34.808Z,1018.96
2023-08-21T01:47:34.826Z,1018.95
2023-08-21T01:48:34.743Z,1018.96
2023-08-21T01:49:34.727Z,1018.96
2023-08-21T01:50:34.749Z,1018.96
2023-08-21T01:51:34.768Z,1018.94
2023-08-21T01:52:34.701Z,1018.96
2023-08-21T01:53:34.733Z,1018.90
2023-08-21T01:54:34.718Z,1018.93
2023-08-21T01:55:34.686Z,1018.97
2023-08-21T01:56:34.662Z,1019.00
2023-08-21T01:57:34.682Z,1018.98
2023-08-21T01:58:34.640Z,1019.01
2023-08-21T01:59:34.661Z,1018.98
2023-08-21T02:00:34.619Z,1018.96
2023-08-21T02:01:34.625Z,1018.95
2023-08-21T02:02:34.764Z,1019.02
2023-08-21T02:03:34.651Z,1018.94
2023-08-21T02:04:34.530Z,1018.93
2023-08-21T02:05:34.530Z,1018.95
2023-08-21T02:06:34.526Z,1018.93
2023-08-21T02:07:34.539Z,1018.89
2023-08-21T02:08:34.532Z,1018.90
2023-08-21T02:09:34.479Z,1018.82
2023-08-21T02:10:34.518Z,1018.89
2023-08-21T02:11:34.575Z,1018.93
2023-08-21T02:12:35.921Z,1018.92
2023-08-21T02:13:34.441Z,1018.93
2023-08-21T02:14:34.417Z,1018.93
2023-08-21T02:15:34.478Z,1018.93
2023-08-21T02:16:34.411Z,1018.97
2023-08-21T02:17:34.405Z,1018.93
2023-08-21T02:18:34.411Z,1018.88
2023-08-21T02:19:34.343Z,1018.90
2023-08-21T02:20:34.324Z,1018.91
2023-08-21T02:21:34.354Z,1018.87
2023-08-21T02:22:34.364Z,1018.94
2023-08-21T02:23:34.383Z,1018.91
2023-08-21T02:24:34.416Z,1018.94
2023-08-21T02:25:34.285Z,1018.91
2023-08-21T02:26:34.317Z,1018.96
2023-08-21T02:27:34.385Z,1018.93
2023-08-21T02:28:34.239Z,1019.04
2023-08-21T02:29:34.276Z,1018.94
2023-08-21T02:30:34.251Z,1018.97
2023-08-21T02:31:34.254Z,1018.93
2023-08-21T02:32:34.221Z,1018.90
2023-08-21T02:33:34.182Z,1018.88
2023-08-21T02:34:34.320Z,1018.89
2023-08-21T02:35:34.178Z,1018.79
2023-08-21T02:36:34.182Z,1018.85
2023-08-21T02:37:34.211Z,1018.81
2023-08-21T02:38:34.131Z,1018.74
2023-08-21T02:39:34.104Z,1018.72
2023-08-21T02:40:34.101Z,1018.69
2023-08-21T02:41:34.148Z,1018.77
2023-08-21T02:42:34.107Z,1018.73
2023-08-21T02:43:34.148Z,1018.74
2023-08-21T02:44:34.158Z,1018.73
2023-08-21T02:45:35.011Z,1018.75
2023-08-21T02:46:34.038Z,1018.74
2023-08-21T02:47:34.045Z,1018.78
2023-08-21T02:48:34.072Z,1018.77
2023-08-21T02:49:34.050Z,1018.78
2023-08-21T02:50:34.007Z,1018.76
2023-08-21T02:51:33.969Z,1018.76
2023-08-21T02:52:33.933Z,1018.79
2023-08-21T02:53:33.936Z,1018.80
2023-08-21T02:54:33.907Z,1018.81
2023-08-21T02:55:33.930Z,1018.83
2023-08-21T02:56:33.902Z,1018.84
2023-08-21T02:57:33.877Z,1018.78
2023-08-21T02:58:33.887Z,1018.79
2023-08-21T02:59:33.926Z,1018.84
2023-08-21T03:00:33.925Z,1018.85
2023-08-21T03:01:33.861Z,1018.91
2023-08-21T03:02:33.954Z,1018.88
2023-08-21T03:03:33.868Z,1018.92
2023-08-21T03:04:33.779Z,1018.90
2023-08-21T03:05:33.839Z,1018.84
2023-08-21T03:06:33.778Z,1018.89
2023-08-21T03:07:33.812Z,1018.88
2023-08-21T03:08:33.843Z,1018.89
2023-08-21T03:09:33.758Z,1018.88
2023-08-21T03:10:33.731Z,1018.90
2023-08-21T03:11:33.758Z,1018.90
2023-08-21T03:12:33.775Z,1018.88
2023-08-21T03:13:33.721Z,1018.91
2023-08-21T03:14:33.658Z,1018.85
2023-08-21T03:15:33.677Z,1018.86
2023-08-21T03:16:33.735Z,1018.86
2023-08-21T03:17:33.650Z,1018.86
2023-08-21T03:18:33.734Z,1018.87
2023-08-21T03:19:33.624Z,1018.84
2023-08-21T03:20:33.579Z,1018.84
2023-08-21T03:21:33.583Z,1018.82
2023-08-21T03:22:33.603Z,1018.82
2023-08-21T03:23:33.600Z,1018.82
2023-08-21T03:24:33.622Z,1018.78
2023-08-21T03:25:33.580Z,1018.82
2023-08-21T03:26:33.565Z,1018.77
2023-08-21T03:27:33.590Z,1018.77
2023-08-21T03:28:33.536Z,1018.77
2023-08-21T03:29:33.484Z,1018.79
2023-08-21T03:30:33.575Z,1018.77
2023-08-21T03:31:33.480Z,1018.86
2023-08-21T03:32:33.425Z,1018.81
2023-08-21T03:33:33.498Z,1018.79
2023-08-21T03:34:33.433Z,1018.75
2023-08-21T03:35:33.422Z,1018.76
2023-08-21T03:36:33.378Z,1018.78
2023-08-21T03:37:33.406Z,1018.75
2023-08-21T03:38:33.383Z,1018.76
2023-08-21T03:39:35.217Z,1018.79
2023-08-21T03:40:33.401Z,1018.76
2023-08-21T03:41:33.429Z,1018.77
2023-08-21T03:42:33.302Z,1018.81
2023-08-21T03:43:33.362Z,1018.79
2023-08-21T03:44:33.322Z,1018.69
2023-08-21T03:45:33.332Z,1018.76
2023-08-21T03:46:33.398Z,1018.77
2023-08-21T03:47:33.351Z,1018.73
2023-08-21T03:48:33.287Z,1018.75
2023-08-21T03:49:33.247Z,1018.72
2023-08-21T03:50:33.232Z,1018.68
2023-08-21T03:51:33.225Z,1018.64
2023-08-21T03:52:33.207Z,1018.66
2023-08-21T03:53:33.183Z,1018.65
2023-08-21T03:54:33.214Z,1018.69
2023-08-21T03:55:33.214Z,1018.69
2023-08-21T03:56:33.139Z,1018.69
2023-08-21T03:57:33.216Z,1018.69
2023-08-21T03:58:33.141Z,1018.70
2023-08-21T03:59:33.227Z,1018.77
2023-08-21T04:00:33.119Z,1018.77
2023-08-21T04:01:33.170Z,1018.76
2023-08-21T04:02:33.058Z,1018.77
2023-08-21T04:03:33.119Z,1018.77
2023-08-21T04:04:33.083Z,1018.80
2023-08-21T04:05:33.117Z,1018.83
2023-08-21T04:06:32.992Z,1018.79
2023-08-21T04:07:32.992Z,1018.85
2023-08-21T04:08:33.026Z,1018.82
2023-08-21T04:09:33.065Z,1018.89
2023-08-21T04:10:32.984Z,1018.84
2023-08-21T04:11:32.943Z,1018.85
2023-08-21T04:12:32.937Z,1018.89
2023-08-21T04:13:32.920Z,1018.86
2023-08-21T04:14:32.919Z,1018.89
2023-08-21T04:15:32.928Z,1018.89
2023-08-21T04:16:32.979Z,1018.89
2023-08-21T04:17:32.901Z,1018.83
2023-08-21T04:18:41.354Z,1018.79
2023-08-21T04:19:33.939Z,1018.79
2023-08-21T04:20:32.861Z,1018.75
2023-08-21T04:21:32.844Z,1018.76
2023-08-21T04:22:32.838Z,1018.74
2023-08-21T04:23:32.801Z,1018.78
2023-08-21T04:24:32.844Z,1018.76
2023-08-21T04:25:32.831Z,1018.77
2023-08-21T04:26:32.806Z,1018.69
2023-08-21T04:27:40.646Z,1018.77
2023-08-21T04:28:32.915Z,1018.74
2023-08-21T04:29:32.718Z,1018.71
2023-08-21T04:30:32.829Z,1018.74
2023-08-21T04:31:32.717Z,1018.76
2023-08-21T04:32:32.734Z,1018.73
2023-08-21T04:33:32.703Z,1018.74
2023-08-21T04:34:32.665Z,1018.80
2023-08-21T04:35:32.717Z,1018.78
2023-08-21T04:36:32.667Z,1018.80
2023-08-21T04:37:32.714Z,1018.81
2023-08-21T04:38:32.594Z,1018.77
2023-08-21T04:39:32.579Z,1018.82
2023-08-21T04:40:32.586Z,1018.79
2023-08-21T04:41:32.565Z,1018.87
2023-08-21T04:42:32.556Z,1018.81
2023-08-21T04:43:32.656Z,1018.86
2023-08-21T04:44:32.520Z,1018.83
2023-08-21T04:45:32.593Z,1018.87
2023-08-21T04:46:32.545Z,1018.99
2023-08-21T04:47:32.512Z,1019.03
2023-08-21T04:48:32.481Z,1019.00
2023-08-21T04:49:32.500Z,1019.07
2023-08-21T04:50:32.514Z,1019.02
2023-08-21T04:51:32.424Z,1019.04
2023-08-21T04:52:32.430Z,1018.97
2023-08-21T04:53:32.438Z,1018.96
2023-08-21T04:54:32.424Z,1018.87
2023-08-21T04:55:32.424Z,1018.85
2023-08-21T04:56:32.370Z,1018.86
2023-08-21T04:57:32.376Z,1018.88
2023-08-21T04:58:32.364Z,1018.91
2023-08-21T04:59:32.380Z,1018.96
2023-08-21T05:00:32.406Z,1019.02
2023-08-21T05:01:32.348Z,1019.00
2023-08-21T05:02:32.293Z,1018.97
2023-08-21T05:03:32.335Z,1018.95
2023-08-21T05:04:32.268Z,1019.03
2023-08-21T05:05:32.295Z,1019.04
2023-08-21T05:06:32.248Z,1019.07
2023-08-21T05:07:32.229Z,1019.09
2023-08-21T05:08:32.263Z,1019.07
2023-08-21T05:09:32.202Z,1019.07
2023-08-21T05:10:32.187Z,1019.05
2023-08-21T05:11:32.199Z,1019.07
2023-08-21T05:12:32.219Z,1019.11
2023-08-21T05:13:32.148Z,1019.07
2023-08-21T05:14:32.154Z,1019.14
2023-08-21T05:15:32.199Z,1019.13
2023-08-21T05:16:32.167Z,1019.06
2023-08-21T05:17:32.235Z,1019.14
2023-08-21T05:18:32.181Z,1019.09
2023-08-21T05:19:32.118Z,1019.07
2023-08-21T05:20:32.122Z,1019.10
2023-08-21T05:21:32.081Z,1019.10
2023-08-21T05:22:32.062Z,1019.09
2023-08-21T05:23:32.017Z,1019.09
2023-08-21T05:24:32.093Z,1019.13
2023-08-21T05:25:32.100Z,1019.16
2023-08-21T05:26:32.021Z,1019.14
2023-08-21T05:27:32.008Z,1019.14
2023-08-21T05:28:32.025Z,1019.16
2023-08-21T05:29:31.960Z,1019.15
2023-08-21T05:30:31.975Z,1019.16
2023-08-21T05:31:32.003Z,1019.16
2023-08-21T05:32:31.960Z,1019.14
2023-08-21T05:33:31.903Z,1019.11
2023-08-21T05:34:31.881Z,1019.14
2023-08-21T05:35:31.890Z,1019.12
2023-08-21T05:36:31.857Z,1019.09
2023-08-21T05:37:31.847Z,1019.16
2023-08-21T05:38:31.833Z,1019.16
2023-08-21T05:39:31.864Z,1019.15
2023-08-21T05:40:31.836Z,1019.11
2023-08-21T05:41:31.794Z,1019.17
2023-08-21T05:42:31.841Z,1019.10
2023-08-21T05:43:31.834Z,1019.15
2023-08-21T05:44:31.816Z,1019.24
2023-08-21T05:45:31.740Z,1019.21
2023-08-21T05:46:31.773Z,1019.20
2023-08-21T05:47:31.717Z,1019.25
2023-08-21T05:48:31.723Z,1019.24
2023-08-21T05:49:31.681Z,1019.30
2023-08-21T05:50:31.681Z,1019.29
2023-08-21T05:51:31.652Z,1019.24
2023-08-21T05:52:31.669Z,1019.28
2023-08-21T05:53:31.648Z,1019.27
2023-08-21T05:54:31.700Z,1019.26
2023-08-21T05:55:31.640Z,1019.23
2023-08-21T05:56:31.619Z,1019.31
2023-08-21T05:57:31.592Z,1019.25
2023-08-21T05:58:31.568Z,1019.30
2023-08-21T05:59:31.572Z,1019.26
2023-08-21T06:00:31.549Z,1019.26
2023-08-21T06:01:31.603Z,1019.30
2023-08-21T06:02:31.533Z,1019.27
2023-08-21T06:03:31.613Z,1019.28
2023-08-21T06:04:31.575Z,1019.31
2023-08-21T06:05:31.489Z,1019.31
2023-08-21T06:06:31.484Z,1019.32
2023-08-21T06:07:31.448Z,1019.33
2023-08-21T06:08:31.441Z,1019.33
2023-08-21T06:09:31.461Z,1019.34
2023-08-21T06:10:31.436Z,1019.31
2023-08-21T06:11:31.394Z,1019.35
2023-08-21T06:12:31.398Z,1019.35
2023-08-21T06:13:31.376Z,1019.36
2023-08-21T06:14:31.370Z,1019.36
2023-08-21T06:15:31.420Z,1019.35
2023-08-21T06:16:31.406Z,1019.33
2023-08-21T06:17:31.343Z,1019.36
2023-08-21T06:18:31.336Z,1019.32
2023-08-21T06:19:31.298Z,1019.37
2023-08-21T06:20:31.357Z,1019.40
2023-08-21T06:21:31.290Z,1019.38
2023-08-21T06:22:31.263Z,1019.42
2023-08-21T06:23:31.268Z,1019.44
2023-08-21T06:24:31.240Z,1019.39
2023-08-21T06:25:31.220Z,1019.43
2023-08-21T06:26:31.408Z,1019.43
2023-08-21T06:27:36.487Z,1019.48
2023-08-21T06:28:32.179Z,1019.40
2023-08-21T06:29:31.170Z,1019.42
2023-08-21T06:30:31.172Z,1019.42
2023-08-21T06:31:31.190Z,1019.45
2023-08-21T06:32:31.133Z,1019.47
2023-08-21T06:33:31.150Z,1019.49
2023-08-21T06:34:31.115Z,1019.38
2023-08-21T06:35:31.229Z,1019.50
2023-08-21T06:36:31.145Z,1019.49
2023-08-21T06:37:31.148Z,1019.46
2023-08-21T06:38:31.090Z,1019.51
2023-08-21T06:39:31.074Z,1019.45
2023-08-21T06:40:31.031Z,1019.49
2023-08-21T06:41:31.055Z,1019.50
2023-08-21T06:42:31.050Z,1019.52
2023-08-21T06:43:31.012Z,1019.50
2023-08-21T06:44:30.988Z,1019.48
2023-08-21T06:45:30.963Z,1019.45
2023-08-21T06:46:31.036Z,1019.52
2023-08-21T06:47:31.035Z,1019.45
2023-08-21T06:48:30.983Z,1019.46
2023-08-21T06:49:30.965Z,1019.46
2023-08-21T06:50:30.907Z,1019.42
2023-08-21T06:51:30.882Z,1019.45
2023-08-21T06:52:30.918Z,1019.42
2023-08-21T06:53:30.864Z,1019.42
2023-08-21T06:54:30.855Z,1019.43
2023-08-21T06:55:30.873Z,1019.40
2023-08-21T06:56:30.856Z,1019.41
2023-08-21T06:57:30.813Z,1019.38
2023-08-21T06:58:30.813Z,1019.40
2023-08-21T06:59:30.785Z,1019.40
2023-08-21T07:00:30.840Z,1019.46
2023-08-21T07:01:30.783Z,1019.39
2023-08-21T07:02:30.784Z,1019.41
2023-08-21T07:03:30.749Z,1019.39
2023-08-21T07:04:30.777Z,1019.40
2023-08-21T07:05:30.713Z,1019.39
2023-08-21T07:06:30.709Z,1019.36
2023-08-21T07:07:30.704Z,1019.40
2023-08-21T07:08:30.689Z,1019.35
2023-08-21T07:09:30.681Z,1019.44
2023-08-21T07:10:30.649Z,1019.35
2023-08-21T07:11:30.701Z,1019.42
2023-08-21T07:12:30.653Z,1019.38
2023-08-21T07:13:30.609Z,1019.37
2023-08-21T07:14:30.613Z,1019.40
2023-08-21T07:15:30.579Z,1019.36
2023-08-21T07:16:31.752Z,1019.40
2023-08-21T07:17:30.605Z,1019.40
2023-08-21T07:18:30.564Z,1019.40
2023-08-21T07:19:30.598Z,1019.42
2023-08-21T07:20:30.522Z,1019.43
2023-08-21T07:21:34.128Z,1019.41
2023-08-21T07:22:30.500Z,1019.48
2023-08-21T07:23:30.487Z,1019.41
2023-08-21T07:24:30.538Z,1019.41
2023-08-21T07:25:30.518Z,1019.44
2023-08-21T07:26:30.473Z,1019.43
2023-08-21T07:27:30.438Z,1019.52
2023-08-21T07:28:30.418Z,1019.51
2023-08-21T07:29:30.425Z,1019.51
2023-08-21T07:30:30.420Z,1019.57
2023-08-21T07:31:30.428Z,1019.59
2023-08-21T07:32:30.392Z,1019.58
2023-08-21T07:33:30.365Z,1019.63
2023-08-21T07:34:30.351Z,1019.59
2023-08-21T07:35:30.351Z,1019.61
2023-08-21T07:36:30.318Z,1019.61
2023-08-21T07:37:30.320Z,1019.55
2023-08-21T07:38:30.305Z,1019.56
2023-08-21T07:39:30.279Z,1019.60
2023-08-21T07:40:30.296Z,1019.59
2023-08-21T07:41:30.258Z,1019.56
2023-08-21T07:42:30.248Z,1019.61
2023-08-21T07:43:30.224Z,1019.60
2023-08-21T07:44:30.224Z,1019.63
2023-08-21T07:45:30.274Z,1019.62
2023-08-21T07:46:30.232Z,1019.58
2023-08-21T07:47:30.212Z,1019.55
2023-08-21T07:48:30.242Z,1019.61
2023-08-21T07:49:30.165Z,1019.57
2023-08-21T07:50:30.146Z,1019.56
2023-08-21T07:51:30.125Z,1019.58
2023-08-21T07:52:30.145Z,1019.55
2023-08-21T07:53:30.093Z,1019.50
2023-08-21T07:54:30.122Z,1019.55
2023-08-21T07:55:30.116Z,1019.53
2023-08-21T07:56:30.074Z,1019.49
2023-08-21T07:57:30.066Z,1019.53
2023-08-21T07:58:30.089Z,1019.56
2023-08-21T07:59:30.027Z,1019.59
2023-08-21T08:00:30.042Z,1019.59
2023-08-21T08:01:30.096Z,1019.62
2023-08-21T08:02:30.013Z,1019.56
2023-08-21T08:03:30.112Z,1019.56
2023-08-21T08:04:29.964Z,1019.61
2023-08-21T08:05:30.728Z,1019.59
2023-08-21T08:06:29.956Z,1019.59
2023-08-21T08:07:29.921Z,1019.60
2023-08-21T08:08:29.923Z,1019.54
2023-08-21T08:09:29.900Z,1019.57
2023-08-21T08:10:29.908Z,1019.60
2023-08-21T08:11:29.908Z,1019.63
2023-08-21T08:12:30.026Z,1019.59
2023-08-21T08:13:29.840Z,1019.58
2023-08-21T08:14:29.869Z,1019.55
2023-08-21T08:15:29.816Z,1019.60
2023-08-21T08:16:29.890Z,1019.56
2023-08-21T08:17:29.867Z,1019.61
2023-08-21T08:18:29.798Z,1019.57
2023-08-21T08:19:29.780Z,1019.57
2023-08-21T08:20:29.776Z,1019.60
2023-08-21T08:21:29.766Z,1019.62
2023-08-21T08:22:29.745Z,1019.69
2023-08-21T08:23:29.755Z,1019.61
2023-08-21T08:24:29.729Z,1019.58
2023-08-21T08:25:29.693Z,1019.62
2023-08-21T08:26:29.703Z,1019.60
2023-08-21T08:27:29.706Z,1019.60
2023-08-21T08:28:29.659Z,1019.60
2023-08-21T08:29:29.648Z,1019.63
2023-08-21T08:30:29.643Z,1019.62
2023-08-21T08:31:29.690Z,1019.60
2023-08-21T08:32:29.696Z,1019.58
2023-08-21T08:33:29.590Z,1019.60
2023-08-21T08:34:29.582Z,1019.65
2023-08-21T08:35:29.588Z,1019.59
2023-08-21T08:36:29.599Z,1019.56
2023-08-21T08:37:29.551Z,1019.58
2023-08-21T08:38:29.537Z,1019.52
2023-08-21T08:39:29.529Z,1019.57
2023-08-21T08:40:29.534Z,1019.54
2023-08-21T08:41:29.540Z,1019.56
2023-08-21T08:42:29.514Z,1019.54
2023-08-21T08:43:29.547Z,1019.54
2023-08-21T08:44:29.503Z,1019.55
2023-08-21T08:45:29.441Z,1019.56
2023-08-21T08:46:29.461Z,1019.51
2023-08-21T08:47:29.444Z,1019.54
2023-08-21T08:48:29.414Z,1019.50
2023-08-21T08:49:29.433Z,1019.51
2023-08-21T08:50:29.513Z,1019.45
2023-08-21T08:51:29.442Z,1019.54
2023-08-21T08:52:29.437Z,1019.48
2023-08-21T08:53:29.354Z,1019.52
2023-08-21T08:54:29.341Z,1019.53
2023-08-21T08:55:29.334Z,1019.50
2023-08-21T08:56:29.312Z,1019.55
2023-08-21T08:57:29.294Z,1019.49
2023-08-21T08:58:29.282Z,1019.56
2023-08-21T08:59:29.282Z,1019.53
2023-08-21T09:00:29.311Z,1019.51
2023-08-21T09:01:29.311Z,1019.53
2023-08-21T09:02:29.238Z,1019.56
2023-08-21T09:03:29.352Z,1019.50
2023-08-21T09:04:29.207Z,1019.53
2023-08-21T09:05:29.186Z,1019.55
2023-08-21T09:06:29.177Z,1019.55
2023-08-21T09:07:29.182Z,1019.58
2023-08-21T09:08:29.220Z,1019.54
2023-08-21T09:09:29.199Z,1019.60
2023-08-21T09:10:29.384Z,1019.62
2023-08-21T09:11:29.122Z,1019.64
2023-08-21T09:12:29.112Z,1019.64
2023-08-21T09:13:29.097Z,1019.62
2023-08-21T09:14:29.084Z,1019.61
2023-08-21T09:15:38.381Z,1019.65
2023-08-21T09:16:30.181Z,1019.68
2023-08-21T09:17:29.085Z,1019.63
2023-08-21T09:18:29.043Z,1019.64
2023-08-21T09:19:29.024Z,1019.60
2023-08-21T09:20:29.057Z,1019.63
2023-08-21T09:21:28.999Z,1019.57
2023-08-21T09:22:28.976Z,1019.59
2023-08-21T09:23:28.960Z,1019.60
2023-08-21T09:24:28.954Z,1019.59
2023-08-21T09:25:28.951Z,1019.58
2023-08-21T09:26:28.917Z,1019.60
2023-08-21T09:27:28.915Z,1019.64
2023-08-21T09:28:28.887Z,1019.67
2023-08-21T09:29:28.949Z,1019.63
2023-08-21T09:30:28.873Z,1019.67
2023-08-21T09:31:28.896Z,1019.66
2023-08-21T09:32:28.897Z,1019.64
2023-08-21T09:33:28.831Z,1019.62
2023-08-21T09:34:28.845Z,1019.56
2023-08-21T09:35:28.865Z,1019.55
2023-08-21T09:36:28.816Z,1019.62
2023-08-21T09:37:28.777Z,1019.58
2023-08-21T09:38:28.793Z,1019.51
2023-08-21T09:39:28.786Z,1019.53
2023-08-21T09:40:28.749Z,1019.53
2023-08-21T09:41:28.820Z,1019.57
2023-08-21T09:42:28.786Z,1019.51
2023-08-21T09:43:28.716Z,1019.58
2023-08-21T09:44:28.681Z,1019.52
2023-08-21T09:45:28.727Z,1019.52
2023-08-21T09:46:28.680Z,1019.45
2023-08-21T09:47:28.712Z,1019.46
2023-08-21T09:48:28.687Z,1019.46
2023-08-21T09:49:28.623Z,1019.43
2023-08-21T09:50:28.628Z,1019.45
2023-08-21T09:51:28.603Z,1019.37
2023-08-21T09:52:28.580Z,1019.43
2023-08-21T09:53:28.598Z,1019.40
2023-08-21T09:54:28.574Z,1019.49
2023-08-21T09:55:28.558Z,1019.46
2023-08-21T09:56:28.526Z,1019.45
2023-08-21T09:57:28.517Z,1019.44
2023-08-21T09:58:28.511Z,1019.43
2023-08-21T09:59:28.486Z,1019.48
2023-08-21T10:00:28.507Z,1019.43
2023-08-21T10:01:28.518Z,1019.45
2023-08-21T10:02:28.453Z,1019.46
2023-08-21T10:03:28.914Z,1019.39
2023-08-21T10:04:28.526Z,1019.42
2023-08-21T10:05:28.444Z,1019.42
2023-08-21T10:06:28.416Z,1019.30
2023-08-21T10:07:28.408Z,1019.38
2023-08-21T10:08:28.490Z,1019.38
2023-08-21T10:09:28.396Z,1019.35
2023-08-21T10:10:28.380Z,1019.35
2023-08-21T10:11:28.395Z,1019.29
2023-08-21T10:12:28.318Z,1019.33
2023-08-21T10:13:28.323Z,1019.36
2023-08-21T10:14:28.307Z,1019.32
2023-08-21T10:15:28.302Z,1019.34
2023-08-21T10:16:28.301Z,1019.27
2023-08-21T10:17:28.266Z,1019.26
2023-08-21T10:18:28.239Z,1019.35
2023-08-21T10:19:28.225Z,1019.26
2023-08-21T10:20:28.209Z,1019.26
2023-08-21T10:21:30.675Z,1019.28
2023-08-21T10:22:28.188Z,1019.20
2023-08-21T10:23:28.173Z,1019.25
2023-08-21T10:24:28.166Z,1019.17
2023-08-21T10:25:31.466Z,1019.24
2023-08-21T10:26:33.752Z,1019.20
2023-08-21T10:27:29.121Z,1019.16
2023-08-21T10:28:28.116Z,1019.23
2023-08-21T10:29:28.095Z,1019.15
2023-08-21T10:30:28.089Z,1019.25
2023-08-21T10:31:28.189Z,1019.22
2023-08-21T10:32:28.067Z,1019.18
2023-08-21T10:33:28.056Z,1019.24
2023-08-21T10:34:28.046Z,1019.21
2023-08-21T10:35:28.029Z,1019.19
2023-08-21T10:36:28.054Z,1019.20
2023-08-21T10:37:28.020Z,1019.19
2023-08-21T10:38:27.996Z,1019.19
2023-08-21T10:39:27.989Z,1019.20
2023-08-21T10:40:27.970Z,1019.19
2023-08-21T10:41:27.973Z,1019.20
2023-08-21T10:42:27.949Z,1019.20
2023-08-21T10:43:27.942Z,1019.20
2023-08-21T10:44:28.478Z,1019.19
2023-08-21T10:45:27.911Z,1019.22
2023-08-21T10:46:27.944Z,1019.25
2023-08-21T10:47:27.905Z,1019.28
2023-08-21T10:48:27.877Z,1019.25
2023-08-21T10:49:27.910Z,1019.24
2023-08-21T10:50:27.842Z,1019.26
2023-08-21T10:51:27.838Z,1019.22
2023-08-21T10:52:27.866Z,1019.17
2023-08-21T10:53:27.801Z,1019.19
2023-08-21T10:54:27.775Z,1019.19
2023-08-21T10:55:27.777Z,1019.18
2023-08-21T10:56:27.754Z,1019.18
2023-08-21T10:57:27.785Z,1019.18
2023-08-21T10:58:27.742Z,1019.14
2023-08-21T10:59:27.731Z,1019.14
2023-08-21T11:00:27.703Z,1019.15
2023-08-21T11:01:27.721Z,1019.15
2023-08-21T11:02:27.703Z,1019.18
2023-08-21T11:03:27.761Z,1019.17
2023-08-21T11:04:27.694Z,1019.24
2023-08-21T11:05:27.731Z,1019.19
2023-08-21T11:06:27.637Z,1019.19
2023-08-21T11:07:27.620Z,1019.22
2023-08-21T11:08:27.624Z,1019.16
2023-08-21T11:09:27.624Z,1019.15
2023-08-21T11:10:27.596Z,1019.18
2023-08-21T11:11:27.759Z,1019.20
2023-08-21T11:12:27.553Z,1019.18
2023-08-21T11:13:27.537Z,1019.18
2023-08-21T11:14:27.562Z,1019.18
2023-08-21T11:15:27.542Z,1019.20
2023-08-21T11:16:27.622Z,1019.19
2023-08-21T11:17:27.504Z,1019.22
2023-08-21T11:18:27.500Z,1019.21
2023-08-21T11:19:27.493Z,1019.21
2023-08-21T11:20:27.453Z,1019.21
2023-08-21T11:21:27.450Z,1019.18
2023-08-21T11:22:27.434Z,1019.23
2023-08-21T11:23:27.433Z,1019.25
2023-08-21T11:24:27.458Z,1019.20
2023-08-21T11:25:36.506Z,1019.25
2023-08-21T11:26:27.370Z,1019.23
2023-08-21T11:27:27.409Z,1019.26
2023-08-21T11:28:27.379Z,1019.20
2023-08-21T11:29:27.464Z,1019.25
2023-08-21T11:30:28.239Z,1019.27
2023-08-21T11:31:27.412Z,1019.27
2023-08-21T11:32:27.373Z,1019.23
2023-08-21T11:33:27.324Z,1019.23
2023-08-21T11:34:27.310Z,1019.23
2023-08-21T11:35:27.326Z,1019.27
2023-08-21T11:36:27.407Z,1019.27
2023-08-21T11:37:27.354Z,1019.23
2023-08-21T11:38:27.276Z,1019.25
2023-08-21T11:39:27.232Z,1019.25
2023-08-21T11:40:28.131Z,1019.22
2023-08-21T11:41:27.189Z,1019.27
2023-08-21T11:42:27.216Z,1019.29
2023-08-21T11:43:27.234Z,1019.29
2023-08-21T11:44:27.148Z,1019.27
2023-08-21T11:45:27.213Z,1019.29
2023-08-21T11:46:27.236Z,1019.28
2023-08-21T11:47:27.192Z,1019.26
2023-08-21T11:48:27.115Z,1019.26
2023-08-21T11:49:27.123Z,1019.21
2023-08-21T11:50:27.090Z,1019.24
2023-08-21T11:51:27.182Z,1019.25
2023-08-21T11:52:27.139Z,1019.19
2023-08-21T11:53:27.128Z,1019.22
2023-08-21T11:54:27.103Z,1019.25
2023-08-21T11:55:27.101Z,1019.26
2023-08-21T11:56:27.115Z,1019.21
2023-08-21T11:57:27.038Z,1019.23
2023-08-21T11:58:27.055Z,1019.20
2023-08-21T11:59:27.050Z,1019.24
2023-08-21T12:00:26.990Z,1019.23
2023-08-21T12:01:27.012Z,1019.20
2023-08-21T12:02:26.952Z,1019.28
2023-08-21T12:03:27.094Z,1019.28
2023-08-21T12:04:26.951Z,1019.22
2023-08-21T12:05:26.954Z,1019.29